Accueil
METAR-TAF:

METAR-TAF

Aéroports :

Wheeler, Hawaï, États-Unis

Wheeler Army Airfield

latitude: 21-29N, longitude: 158-02W, altitude: 255 m

Observation

Le bulletin a été fait il y a 46 minutes, à 08:56 UTC
Vent calme
Température 21°C
Humidité 88%
Pression 1017 hPa
Visibilité: 16.1 km
Quelques nuages à une hauteur de 1800 ft
Nuages fragmentés à une hauteur de 5000 ft

METAR: PHHI 240856Z AUTO 00000KT 10SM FEW018 BKN050 21/19 A3004 RMK AO2 SLP164 T02070188 50004 $

Heure: 23:42 (09:42 UTC)

Prévision

Le bulletin a été fait il y a 2 heures et 42 minutes, à 07:00 UTC
Prévision valable du 24 à 07 UTC au 25 à 13 UTC
Vent 9 kt de est
Visibilité 10 km ou plus
Nuages épars à une hauteur de 2000 ft
Nuages fragmentés à une hauteur de 3500 ft

TAF: PHHI 240700Z 2407/2513 08009KT 9999 SCT020 BKN035 QNH2994INS TX27/2502Z TN17/2414Z

Observations et prévisions météorologiques de plus de 4000 aéroports (messages METAR et TAF).

Les stations disponibles sont représentées par des disques jaunes et rouges sur la carte.

Passer la souris dessus pour voir le nom de la station.

Cliquer dessus pour voir les observations et prévisions météorologiques.

Pour changer de carte: cliquez sur les boutons verts avec une croix noire pour zoomer, sur le bouton vert avec un tiret pour effectuer un zoom arrière, ou sur les flèches vertes pour les cartes adjacentes.


METAR-TAF: